Terminal Aerodrome Forecast
Issued by NWS

Home | Current Version | Previous Version | Text Only | Print | Product List | Glossary On
Versions: 1 2 3 4 5 6 7 8 9 10 11 12 13 14 15 16 17 18 19 20 21 22 23 24 25 26 27 28 29 30 31 32 33 34
520
FTUS43 KDMX 032334
TAFMCW
TAF
KMCW 032334Z 0400/0424 27015G25KT P6SM SCT080
     FM040100 30014KT P6SM VCSH BKN070
     FM040500 34013KT P6SM SKC
     FM041500 35018G25KT P6SM SCT050=

USA.gov is the U.S. government's official web portal to all federal, state and local government web resources and services.